createdAt,value
2019-02-15T00:00:17.057Z,20.23
2019-02-15T00:05:25.841Z,19.91
2019-02-15T00:10:34.715Z,20.00
2019-02-15T00:15:43.548Z,20.10
2019-02-15T00:20:52.497Z,19.94
2019-02-15T00:26:01.310Z,20.94
2019-02-15T00:31:10.185Z,21.63
2019-02-15T00:36:19.074Z,21.81
2019-02-15T00:41:28.274Z,23.44
2019-02-15T00:46:37.094Z,23.34
2019-02-15T00:51:45.995Z,23.84
2019-02-15T00:56:54.995Z,23.60
2019-02-15T01:02:03.890Z,24.41
2019-02-15T01:07:12.718Z,24.73
2019-02-15T01:12:21.638Z,24.67
2019-02-15T01:17:30.438Z,25.28
2019-02-15T01:22:39.355Z,26.79
2019-02-15T01:28:00.005Z,26.85
2019-02-15T01:32:48.867Z,27.94
2019-02-15T01:37:58.124Z,26.75
2019-02-15T01:43:06.991Z,26.50
2019-02-15T01:48:15.826Z,27.39
2019-02-15T01:53:25.014Z,28.11
2019-02-15T01:58:33.819Z,28.14
2019-02-15T02:03:43.400Z,28.71
2019-02-15T02:08:52.214Z,30.22
2019-02-15T02:14:01.090Z,29.86
2019-02-15T02:19:09.926Z,30.31
2019-02-15T02:24:18.814Z,30.12
2019-02-15T02:29:28.031Z,29.39
2019-02-15T02:34:36.927Z,30.05
2019-02-15T02:39:45.729Z,29.44
2019-02-15T02:44:55.083Z,29.04
2019-02-15T02:50:03.983Z,29.18
2019-02-15T02:55:12.875Z,29.28
2019-02-15T03:00:21.673Z,30.13
2019-02-15T03:05:30.698Z,31.03
2019-02-15T03:10:39.557Z,29.99
2019-02-15T03:15:48.478Z,28.22
2019-02-15T03:20:57.314Z,27.97
2019-02-15T03:26:06.208Z,27.54
2019-02-15T03:31:15.048Z,27.31
2019-02-15T03:36:23.938Z,28.05
2019-02-15T03:41:32.255Z,30.67
2019-02-15T03:46:41.141Z,31.37
2019-02-15T03:51:49.961Z,30.41
2019-02-15T03:56:59.210Z,32.16
2019-02-15T04:02:08.050Z,31.34
2019-02-15T04:07:16.957Z,33.41
2019-02-15T04:12:25.742Z,33.25
2019-02-15T04:17:34.659Z,31.77
2019-02-15T04:22:43.519Z,30.60
2019-02-15T04:27:52.402Z,29.16
2019-02-15T04:33:01.242Z,26.90
2019-02-15T04:38:10.155Z,26.08
2019-02-15T04:43:18.975Z,24.56
2019-02-15T04:48:28.461Z,24.18
2019-02-15T04:53:37.266Z,25.33
2019-02-15T04:58:46.133Z,27.69
2019-02-15T05:03:55.051Z,25.92
2019-02-15T05:09:03.950Z,27.81
2019-02-15T05:14:12.855Z,28.41
2019-02-15T05:19:21.709Z,27.82
2019-02-15T05:24:30.543Z,28.39
2019-02-15T05:29:39.522Z,26.56
2019-02-15T05:34:48.378Z,26.60
2019-02-15T05:39:57.306Z,27.71
2019-02-15T05:45:06.108Z,28.19
2019-02-15T05:50:15.003Z,26.75
2019-02-15T05:55:23.817Z,26.68
2019-02-15T06:00:37.124Z,27.24
2019-02-15T06:05:41.052Z,26.15
2019-02-15T06:10:49.944Z,26.27
2019-02-15T06:15:58.744Z,25.53
2019-02-15T06:21:07.610Z,26.71
2019-02-15T06:26:16.507Z,26.10
2019-02-15T06:31:25.406Z,28.21
2019-02-15T06:36:34.231Z,26.72
2019-02-15T06:41:43.355Z,26.47
2019-02-15T06:46:52.231Z,27.00
2019-02-15T06:52:01.065Z,26.09
2019-02-15T06:57:11.228Z,26.83
2019-02-15T07:02:10.152Z,24.92
2019-02-15T07:07:18.971Z,25.03
2019-02-15T07:12:27.883Z,25.69
2019-02-15T07:17:36.789Z,26.18
2019-02-15T07:22:45.672Z,26.71
2019-02-15T07:27:54.465Z,27.30
2019-02-15T07:33:03.391Z,26.53
2019-02-15T07:38:12.303Z,26.63
2019-02-15T07:43:21.164Z,26.09
2019-02-15T07:48:29.986Z,27.73
2019-02-15T07:53:42.508Z,28.27
2019-02-15T07:58:41.262Z,27.52
2019-02-15T08:03:50.147Z,27.70
2019-02-15T08:08:58.938Z,27.55
2019-02-15T08:14:14.574Z,26.48
2019-02-15T08:19:16.126Z,26.65
2019-02-15T08:24:25.384Z,26.89
2019-02-15T08:29:34.183Z,28.22
2019-02-15T08:34:43.389Z,28.07
2019-02-15T08:39:52.299Z,29.64
2019-02-15T08:45:01.231Z,26.49
2019-02-15T08:50:10.776Z,26.56
2019-02-15T08:55:19.990Z,25.20
2019-02-15T09:00:28.856Z,24.71
2019-02-15T09:05:37.871Z,25.53
2019-02-15T09:10:46.969Z,23.52
2019-02-15T09:15:59.651Z,22.24
2019-02-15T09:20:58.894Z,21.03
2019-02-15T09:26:07.931Z,22.56
2019-02-15T09:31:16.945Z,22.34
2019-02-15T09:36:26.072Z,21.22
2019-02-15T09:41:34.902Z,20.48
2019-02-15T09:46:44.181Z,22.97
2019-02-15T09:51:53.042Z,20.72
2019-02-15T09:57:01.947Z,20.41
2019-02-15T10:02:10.780Z,20.41
2019-02-15T10:07:19.717Z,20.78
2019-02-15T10:12:28.563Z,20.80
2019-02-15T10:17:37.496Z,20.50
2019-02-15T10:22:46.375Z,21.07
2019-02-15T10:27:55.338Z,19.57
2019-02-15T10:33:04.227Z,21.39
2019-02-15T10:38:13.847Z,18.77
2019-02-15T10:43:22.719Z,17.81
2019-02-15T10:48:31.643Z,17.42
2019-02-15T10:53:47.615Z,16.67
2019-02-15T10:58:46.482Z,16.79
2019-02-15T11:03:55.344Z,16.08
2019-02-15T11:09:04.253Z,15.90
2019-02-15T11:14:13.061Z,15.94
2019-02-15T11:19:22.062Z,16.17
2019-02-15T11:24:30.934Z,15.94
2019-02-15T11:29:39.913Z,15.29
2019-02-15T11:34:48.800Z,15.25
2019-02-15T11:39:58.210Z,22.53
2019-02-15T11:45:07.054Z,15.57
2019-02-15T11:50:16.009Z,14.67
2019-02-15T11:55:25.227Z,15.12
2019-02-15T12:00:34.423Z,14.76
2019-02-15T12:05:43.306Z,14.55
2019-02-15T12:10:52.238Z,14.69
2019-02-15T12:16:00.097Z,13.76
2019-02-15T12:21:08.947Z,13.59
2019-02-15T12:26:17.902Z,13.66
2019-02-15T12:31:26.889Z,13.42
2019-02-15T12:36:35.731Z,13.58
2019-02-15T12:41:44.672Z,13.60
2019-02-15T12:46:53.493Z,13.48
2019-02-15T12:52:02.498Z,12.73
2019-02-15T12:57:11.367Z,13.17
2019-02-15T13:02:20.298Z,13.61
2019-02-15T13:07:31.623Z,13.46
2019-02-15T13:12:37.944Z,12.59
2019-02-15T13:17:46.786Z,12.64
2019-02-15T13:22:55.718Z,12.53
2019-02-15T13:28:04.616Z,11.90
2019-02-15T13:33:13.576Z,12.30
2019-02-15T13:38:22.537Z,11.76
2019-02-15T13:43:31.541Z,12.24
2019-02-15T13:48:40.385Z,11.60
2019-02-15T13:53:49.315Z,11.30
2019-02-15T13:58:58.502Z,11.34
2019-02-15T14:04:07.631Z,11.01
2019-02-15T14:09:16.515Z,10.80
2019-02-15T14:14:25.827Z,10.37
2019-02-15T14:19:34.674Z,10.22
2019-02-15T14:24:42.167Z,9.52
2019-02-15T14:29:51.023Z,9.73
2019-02-15T14:34:59.981Z,9.71
2019-02-15T14:40:08.890Z,9.23
2019-02-15T14:45:17.955Z,8.79
2019-02-15T14:50:27.123Z,9.76
2019-02-15T14:55:36.117Z,9.98
2019-02-15T15:00:45.029Z,10.01
2019-02-15T15:05:55.146Z,8.48
2019-02-15T15:11:03.568Z,8.20
2019-02-15T15:16:12.799Z,7.66
2019-02-15T15:21:21.650Z,8.15
2019-02-15T15:26:30.958Z,8.40
2019-02-15T15:31:40.287Z,7.97
2019-02-15T15:36:50.132Z,8.17
2019-02-15T15:41:58.564Z,8.16
2019-02-15T15:47:07.968Z,8.05
2019-02-15T15:52:16.907Z,8.10
2019-02-15T15:57:26.110Z,8.83
2019-02-15T16:02:35.637Z,9.30
2019-02-15T16:07:44.856Z,10.32
2019-02-15T16:12:53.833Z,12.89
2019-02-15T16:18:03.060Z,12.20
2019-02-15T16:23:12.656Z,10.32
2019-02-15T16:28:21.914Z,10.17
2019-02-15T16:33:31.022Z,10.43
2019-02-15T16:38:39.992Z,11.33
2019-02-15T16:43:48.832Z,10.27
2019-02-15T16:48:56.301Z,11.71
2019-02-15T16:54:05.215Z,11.25
2019-02-15T16:59:14.146Z,10.84
2019-02-15T17:04:23.209Z,10.66
2019-02-15T17:09:32.171Z,10.98
2019-02-15T17:14:41.060Z,10.84
2019-02-15T17:19:50.002Z,10.80
2019-02-15T17:25:00.553Z,10.68
2019-02-15T17:29:59.508Z,11.16
2019-02-15T17:35:08.407Z,11.79
2019-02-15T17:40:17.409Z,12.09
2019-02-15T17:45:26.798Z,12.99
2019-02-15T17:50:35.739Z,13.67
2019-02-15T17:55:44.623Z,13.94
2019-02-15T18:00:54.769Z,13.97
2019-02-15T18:05:57.031Z,14.26
2019-02-15T18:10:55.938Z,15.06
2019-02-15T18:16:04.791Z,15.06
2019-02-15T18:21:13.869Z,15.82
2019-02-15T18:26:22.706Z,19.20
2019-02-15T18:31:31.683Z,21.35
2019-02-15T18:36:40.515Z,16.65
2019-02-15T18:41:49.458Z,16.88
2019-02-15T18:46:58.342Z,18.03
2019-02-15T18:52:07.286Z,19.08
2019-02-15T18:57:16.132Z,18.71
2019-02-15T19:02:24.831Z,19.59
2019-02-15T19:07:33.653Z,19.61
2019-02-15T19:12:41.125Z,19.53
2019-02-15T19:17:49.962Z,19.80
2019-02-15T19:22:58.920Z,21.37
2019-02-15T19:28:07.749Z,20.30
2019-02-15T19:33:16.646Z,21.41
2019-02-15T19:38:25.475Z,20.91
2019-02-15T19:43:34.465Z,21.19
2019-02-15T19:48:43.460Z,18.93
2019-02-15T19:53:52.399Z,17.59
2019-02-15T19:59:01.275Z,16.94
2019-02-15T20:04:10.417Z,16.07
2019-02-15T20:09:19.483Z,16.78
2019-02-15T20:14:28.383Z,17.22
2019-02-15T20:19:37.255Z,19.52
2019-02-15T20:24:46.208Z,21.68
2019-02-15T20:29:55.056Z,23.01
2019-02-15T20:35:04.018Z,22.86
2019-02-15T20:40:13.242Z,24.26
2019-02-15T20:45:22.171Z,24.00
2019-02-15T20:50:31.092Z,23.63
2019-02-15T20:55:40.269Z,24.28
2019-02-15T21:00:49.126Z,23.77
2019-02-15T21:05:58.006Z,24.77
2019-02-15T21:11:06.835Z,24.71
2019-02-15T21:16:15.807Z,23.73
2019-02-15T21:21:24.900Z,24.34
2019-02-15T21:26:33.848Z,25.74
2019-02-15T21:31:42.688Z,27.04
2019-02-15T21:36:51.580Z,26.59
2019-02-15T21:42:00.430Z,27.19
2019-02-15T21:47:09.892Z,27.59
2019-02-15T21:52:18.909Z,28.57
2019-02-15T21:57:27.867Z,28.44
2019-02-15T22:02:36.711Z,28.52
2019-02-15T22:07:45.766Z,29.37
2019-02-15T22:12:54.662Z,32.72
2019-02-15T22:18:04.139Z,29.95
2019-02-15T22:23:13.524Z,26.78
2019-02-15T22:28:22.466Z,26.01
2019-02-15T22:33:31.706Z,25.52
2019-02-15T22:38:40.905Z,24.52
2019-02-15T22:43:49.720Z,24.51
2019-02-15T22:48:58.772Z,23.99
2019-02-15T22:54:07.612Z,24.71
2019-02-15T22:59:16.968Z,27.07
2019-02-15T23:04:25.915Z,28.87
2019-02-15T23:09:34.814Z,28.03
2019-02-15T23:14:43.712Z,28.46
2019-02-15T23:19:52.663Z,28.07
2019-02-15T23:25:01.535Z,27.60
2019-02-15T23:30:10.511Z,27.88
2019-02-15T23:35:19.787Z,27.26
2019-02-15T23:40:28.694Z,25.33
2019-02-15T23:45:37.678Z,24.07
2019-02-15T23:50:54.285Z,22.51
2019-02-15T23:55:54.994Z,22.81
